Terminal Aerodrome Forecast
Issued by NWS

Home | Current Version | Previous Version | Text Only | Print | Product List | Glossary On
Versions: 1 2 3 4 5 6 7 8 9 10 11 12 13 14 15 16 17 18 19 20 21 22 23 24 25 26 27 28 29 30 31 32 33 34 35 36 37 38 39 40 41 42
000
FTUS45 KBYZ 292336 CCA
TAFLVM
TAF COR
KLVM 292336Z 3000/3024 07018KT P6SM VCSH SCT025 BKN035 OVC040
     FM300400 08008KT P6SM SCT010 BKN025 OVC035
     FM300900 09008KT P6SM SCT007 BKN012 OVC020
     FM301800 07012KT P6SM BKN015 OVC025
     FM302100 09014G24KT P6SM VCSH SCT015 BKN030 OVC040=

USA.gov is the U.S. government's official web portal to all federal, state and local government web resources and services.